sensor_id;sensor_type;location;lat;lon;timestamp;temperature;humidity
17172;DHT22;8701;50.150;8.756;2022-12-10T00:01:17;2.70;99.90
17172;DHT22;8701;50.150;8.756;2022-12-10T00:05:19;2.60;99.90
17172;DHT22;8701;50.150;8.756;2022-12-10T00:09:21;2.60;99.90
17172;DHT22;8701;50.150;8.756;2022-12-10T00:13:25;2.60;99.90
17172;DHT22;8701;50.150;8.756;2022-12-10T00:17:27;2.60;99.90
17172;DHT22;8701;50.150;8.756;2022-12-10T00:21:31;2.60;99.90
17172;DHT22;8701;50.150;8.756;2022-12-10T00:25:34;2.60;99.90
17172;DHT22;8701;50.150;8.756;2022-12-10T00:29:37;2.60;99.90
17172;DHT22;8701;50.150;8.756;2022-12-10T00:33:40;2.60;99.90
17172;DHT22;8701;50.150;8.756;2022-12-10T00:37:42;2.60;99.90
17172;DHT22;8701;50.150;8.756;2022-12-10T00:41:45;2.60;99.90
17172;DHT22;8701;50.150;8.756;2022-12-10T00:45:49;2.60;99.90
17172;DHT22;8701;50.150;8.756;2022-12-10T00:49:51;2.60;99.90
17172;DHT22;8701;50.150;8.756;2022-12-10T00:53:55;2.60;99.90
17172;DHT22;8701;50.150;8.756;2022-12-10T00:57:58;2.60;99.90
17172;DHT22;8701;50.150;8.756;2022-12-10T01:02:01;2.50;99.90
17172;DHT22;8701;50.150;8.756;2022-12-10T01:06:09;2.50;99.90
17172;DHT22;8701;50.150;8.756;2022-12-10T01:10:11;2.50;99.90
17172;DHT22;8701;50.150;8.756;2022-12-10T01:14:23;2.40;99.90
17172;DHT22;8701;50.150;8.756;2022-12-10T01:18:27;2.40;99.90
17172;DHT22;8701;50.150;8.756;2022-12-10T01:22:29;2.30;99.90
17172;DHT22;8701;50.150;8.756;2022-12-10T01:26:34;2.30;99.90
17172;DHT22;8701;50.150;8.756;2022-12-10T01:30:36;2.20;99.90
17172;DHT22;8701;50.150;8.756;2022-12-10T01:34:39;2.20;99.90
17172;DHT22;8701;50.150;8.756;2022-12-10T01:38:42;2.20;99.90
17172;DHT22;8701;50.150;8.756;2022-12-10T01:42:45;2.10;99.90
17172;DHT22;8701;50.150;8.756;2022-12-10T01:46:51;2.10;99.90
17172;DHT22;8701;50.150;8.756;2022-12-10T01:50:55;2.10;99.90
17172;DHT22;8701;50.150;8.756;2022-12-10T01:54:57;2.00;99.90
17172;DHT22;8701;50.150;8.756;2022-12-10T01:58:59;2.00;99.90
17172;DHT22;8701;50.150;8.756;2022-12-10T02:03:05;1.90;99.90
17172;DHT22;8701;50.150;8.756;2022-12-10T02:07:16;1.90;99.90
17172;DHT22;8701;50.150;8.756;2022-12-10T02:11:24;1.80;99.90
17172;DHT22;8701;50.150;8.756;2022-12-10T02:15:34;1.80;99.90
17172;DHT22;8701;50.150;8.756;2022-12-10T02:19:56;1.80;99.90
17172;DHT22;8701;50.150;8.756;2022-12-10T02:24:03;1.80;99.90
17172;DHT22;8701;50.150;8.756;2022-12-10T02:28:13;1.70;99.90
17172;DHT22;8701;50.150;8.756;2022-12-10T02:32:23;1.70;99.90
17172;DHT22;8701;50.150;8.756;2022-12-10T02:36:31;1.50;99.90
17172;DHT22;8701;50.150;8.756;2022-12-10T02:40:36;1.60;99.90
17172;DHT22;8701;50.150;8.756;2022-12-10T02:44:44;1.50;99.90
17172;DHT22;8701;50.150;8.756;2022-12-10T02:48:50;1.50;99.90
17172;DHT22;8701;50.150;8.756;2022-12-10T02:52:53;1.50;99.90
17172;DHT22;8701;50.150;8.756;2022-12-10T02:56:59;1.50;99.90
17172;DHT22;8701;50.150;8.756;2022-12-10T03:01:11;1.50;99.90
17172;DHT22;8701;50.150;8.756;2022-12-10T03:05:20;1.40;99.90
17172;DHT22;8701;50.150;8.756;2022-12-10T03:09:27;1.40;99.90
17172;DHT22;8701;50.150;8.756;2022-12-10T03:13:35;1.40;99.90
17172;DHT22;8701;50.150;8.756;2022-12-10T03:17:41;1.40;99.90
17172;DHT22;8701;50.150;8.756;2022-12-10T03:21:46;1.40;99.90
17172;DHT22;8701;50.150;8.756;2022-12-10T03:25:50;1.40;99.90
17172;DHT22;8701;50.150;8.756;2022-12-10T03:29:55;1.40;99.90
17172;DHT22;8701;50.150;8.756;2022-12-10T03:33:58;1.30;99.90
17172;DHT22;8701;50.150;8.756;2022-12-10T03:38:02;1.30;99.90
17172;DHT22;8701;50.150;8.756;2022-12-10T03:42:05;1.20;99.90
17172;DHT22;8701;50.150;8.756;2022-12-10T03:46:07;1.20;99.90
17172;DHT22;8701;50.150;8.756;2022-12-10T03:50:10;1.20;99.90
17172;DHT22;8701;50.150;8.756;2022-12-10T03:54:14;1.20;99.90
17172;DHT22;8701;50.150;8.756;2022-12-10T03:58:16;1.10;99.90
17172;DHT22;8701;50.150;8.756;2022-12-10T04:02:19;1.20;99.90
17172;DHT22;8701;50.150;8.756;2022-12-10T04:06:21;1.20;99.90
17172;DHT22;8701;50.150;8.756;2022-12-10T04:10:25;1.10;99.90
17172;DHT22;8701;50.150;8.756;2022-12-10T04:14:29;1.10;99.90
17172;DHT22;8701;50.150;8.756;2022-12-10T04:18:48;1.10;99.90
17172;DHT22;8701;50.150;8.756;2022-12-10T04:22:50;1.10;99.90
17172;DHT22;8701;50.150;8.756;2022-12-10T04:27:13;1.10;99.90
17172;DHT22;8701;50.150;8.756;2022-12-10T04:31:18;1.10;99.90
17172;DHT22;8701;50.150;8.756;2022-12-10T04:35:20;1.10;99.90
17172;DHT22;8701;50.150;8.756;2022-12-10T04:39:22;1.10;99.90
17172;DHT22;8701;50.150;8.756;2022-12-10T04:43:26;1.20;99.90
17172;DHT22;8701;50.150;8.756;2022-12-10T04:47:28;1.20;99.90
17172;DHT22;8701;50.150;8.756;2022-12-10T04:51:31;1.10;99.90
17172;DHT22;8701;50.150;8.756;2022-12-10T04:55:33;1.10;99.90
17172;DHT22;8701;50.150;8.756;2022-12-10T04:59:37;1.10;99.90
17172;DHT22;8701;50.150;8.756;2022-12-10T05:03:40;1.00;99.90
17172;DHT22;8701;50.150;8.756;2022-12-10T05:07:42;1.10;99.90
17172;DHT22;8701;50.150;8.756;2022-12-10T05:11:44;1.10;99.90
17172;DHT22;8701;50.150;8.756;2022-12-10T05:15:48;1.10;99.90
17172;DHT22;8701;50.150;8.756;2022-12-10T05:19:50;1.10;99.90
17172;DHT22;8701;50.150;8.756;2022-12-10T05:23:52;1.10;99.90
17172;DHT22;8701;50.150;8.756;2022-12-10T05:27:54;1.20;99.90
17172;DHT22;8701;50.150;8.756;2022-12-10T05:31:58;1.20;99.90
17172;DHT22;8701;50.150;8.756;2022-12-10T05:36:02;1.20;99.90
17172;DHT22;8701;50.150;8.756;2022-12-10T05:40:05;1.20;99.90
17172;DHT22;8701;50.150;8.756;2022-12-10T05:44:09;1.20;99.90
17172;DHT22;8701;50.150;8.756;2022-12-10T05:48:14;1.20;99.90
17172;DHT22;8701;50.150;8.756;2022-12-10T05:52:17;1.30;99.90
17172;DHT22;8701;50.150;8.756;2022-12-10T05:56:21;1.30;99.90
17172;DHT22;8701;50.150;8.756;2022-12-10T06:00:24;1.30;99.90
17172;DHT22;8701;50.150;8.756;2022-12-10T06:04:27;1.40;99.90
17172;DHT22;8701;50.150;8.756;2022-12-10T06:08:30;1.40;99.90
17172;DHT22;8701;50.150;8.756;2022-12-10T06:12:32;1.50;99.90
17172;DHT22;8701;50.150;8.756;2022-12-10T06:16:34;1.50;99.90
17172;DHT22;8701;50.150;8.756;2022-12-10T06:20:39;1.50;99.90
17172;DHT22;8701;50.150;8.756;2022-12-10T06:24:42;1.50;99.90
17172;DHT22;8701;50.150;8.756;2022-12-10T06:28:45;1.60;99.90
17172;DHT22;8701;50.150;8.756;2022-12-10T06:32:47;1.60;99.90
17172;DHT22;8701;50.150;8.756;2022-12-10T06:36:51;1.60;99.90
17172;DHT22;8701;50.150;8.756;2022-12-10T06:40:53;1.60;99.90
17172;DHT22;8701;50.150;8.756;2022-12-10T06:44:55;1.70;99.90
17172;DHT22;8701;50.150;8.756;2022-12-10T06:48:59;1.70;99.90
17172;DHT22;8701;50.150;8.756;2022-12-10T06:53:02;1.80;99.90
17172;DHT22;8701;50.150;8.756;2022-12-10T06:57:05;1.80;99.90
17172;DHT22;8701;50.150;8.756;2022-12-10T07:01:10;1.80;99.90
17172;DHT22;8701;50.150;8.756;2022-12-10T07:05:12;1.90;99.90
17172;DHT22;8701;50.150;8.756;2022-12-10T07:09:16;1.90;99.90
17172;DHT22;8701;50.150;8.756;2022-12-10T07:13:18;2.00;99.90
17172;DHT22;8701;50.150;8.756;2022-12-10T07:17:20;2.00;99.90
17172;DHT22;8701;50.150;8.756;2022-12-10T07:21:24;2.00;99.90
17172;DHT22;8701;50.150;8.756;2022-12-10T07:25:28;2.00;99.90
17172;DHT22;8701;50.150;8.756;2022-12-10T07:29:31;2.00;99.90
17172;DHT22;8701;50.150;8.756;2022-12-10T07:33:33;2.10;99.90
17172;DHT22;8701;50.150;8.756;2022-12-10T07:37:35;2.20;99.90
17172;DHT22;8701;50.150;8.756;2022-12-10T07:41:39;2.30;99.90
17172;DHT22;8701;50.150;8.756;2022-12-10T07:45:41;2.30;99.90
17172;DHT22;8701;50.150;8.756;2022-12-10T07:49:43;2.40;99.90
17172;DHT22;8701;50.150;8.756;2022-12-10T07:53:46;2.50;99.90
17172;DHT22;8701;50.150;8.756;2022-12-10T07:57:50;2.50;99.90
17172;DHT22;8701;50.150;8.756;2022-12-10T08:01:52;2.50;99.90
17172;DHT22;8701;50.150;8.756;2022-12-10T08:06:01;2.60;99.90
17172;DHT22;8701;50.150;8.756;2022-12-10T08:10:04;2.60;99.90
17172;DHT22;8701;50.150;8.756;2022-12-10T08:14:07;2.60;99.90
17172;DHT22;8701;50.150;8.756;2022-12-10T08:18:10;2.60;99.90
17172;DHT22;8701;50.150;8.756;2022-12-10T08:22:12;2.70;99.90
17172;DHT22;8701;50.150;8.756;2022-12-10T08:26:16;2.80;99.90
17172;DHT22;8701;50.150;8.756;2022-12-10T08:30:21;2.80;99.90
17172;DHT22;8701;50.150;8.756;2022-12-10T08:34:23;2.80;99.90
17172;DHT22;8701;50.150;8.756;2022-12-10T08:38:25;2.80;99.90
17172;DHT22;8701;50.150;8.756;2022-12-10T08:42:28;2.90;99.90
17172;DHT22;8701;50.150;8.756;2022-12-10T08:46:31;2.90;99.90
17172;DHT22;8701;50.150;8.756;2022-12-10T08:50:34;3.00;99.90
17172;DHT22;8701;50.150;8.756;2022-12-10T08:54:37;3.00;99.90
17172;DHT22;8701;50.150;8.756;2022-12-10T08:58:39;3.10;99.90
17172;DHT22;8701;50.150;8.756;2022-12-10T09:02:43;3.20;99.90
17172;DHT22;8701;50.150;8.756;2022-12-10T09:06:45;3.30;99.90
17172;DHT22;8701;50.150;8.756;2022-12-10T09:10:49;3.30;99.90
17172;DHT22;8701;50.150;8.756;2022-12-10T09:14:54;3.40;99.90
17172;DHT22;8701;50.150;8.756;2022-12-10T09:18:58;3.70;99.90
17172;DHT22;8701;50.150;8.756;2022-12-10T09:23:01;3.60;99.90
17172;DHT22;8701;50.150;8.756;2022-12-10T09:27:03;3.70;99.90
17172;DHT22;8701;50.150;8.756;2022-12-10T09:31:06;3.90;99.90
17172;DHT22;8701;50.150;8.756;2022-12-10T09:35:11;4.10;99.90
17172;DHT22;8701;50.150;8.756;2022-12-10T09:39:14;4.10;99.90
17172;DHT22;8701;50.150;8.756;2022-12-10T09:43:21;4.20;99.90
17172;DHT22;8701;50.150;8.756;2022-12-10T09:47:31;4.20;99.90
17172;DHT22;8701;50.150;8.756;2022-12-10T09:51:38;4.00;99.90
17172;DHT22;8701;50.150;8.756;2022-12-10T09:55:44;4.00;99.90
17172;DHT22;8701;50.150;8.756;2022-12-10T09:59:49;4.10;99.90
17172;DHT22;8701;50.150;8.756;2022-12-10T10:03:52;4.20;99.90
17172;DHT22;8701;50.150;8.756;2022-12-10T10:07:58;4.40;99.90
17172;DHT22;8701;50.150;8.756;2022-12-10T10:12:01;4.40;99.90
17172;DHT22;8701;50.150;8.756;2022-12-10T10:16:18;4.40;99.90
17172;DHT22;8701;50.150;8.756;2022-12-10T10:20:21;4.30;99.90
17172;DHT22;8701;50.150;8.756;2022-12-10T10:24:32;4.30;99.90
17172;DHT22;8701;50.150;8.756;2022-12-10T10:28:35;4.30;99.90
17172;DHT22;8701;50.150;8.756;2022-12-10T10:32:50;4.40;99.90
17172;DHT22;8701;50.150;8.756;2022-12-10T10:36:56;4.30;99.90
17172;DHT22;8701;50.150;8.756;2022-12-10T10:41:03;4.30;99.90
17172;DHT22;8701;50.150;8.756;2022-12-10T10:45:31;4.20;99.90
17172;DHT22;8701;50.150;8.756;2022-12-10T10:49:34;4.20;99.90
17172;DHT22;8701;50.150;8.756;2022-12-10T10:53:46;4.10;99.90
17172;DHT22;8701;50.150;8.756;2022-12-10T10:57:51;4.10;99.90
17172;DHT22;8701;50.150;8.756;2022-12-10T11:01:59;4.20;99.90
17172;DHT22;8701;50.150;8.756;2022-12-10T11:06:06;4.20;99.90
17172;DHT22;8701;50.150;8.756;2022-12-10T11:10:17;4.40;99.90
17172;DHT22;8701;50.150;8.756;2022-12-10T11:14:26;4.50;99.90
17172;DHT22;8701;50.150;8.756;2022-12-10T11:18:34;4.60;99.90
17172;DHT22;8701;50.150;8.756;2022-12-10T11:22:37;4.70;99.90
17172;DHT22;8701;50.150;8.756;2022-12-10T11:26:48;4.80;99.90
17172;DHT22;8701;50.150;8.756;2022-12-10T11:31:11;4.70;99.90
17172;DHT22;8701;50.150;8.756;2022-12-10T11:35:21;4.70;99.90
17172;DHT22;8701;50.150;8.756;2022-12-10T11:39:44;4.70;99.90
17172;DHT22;8701;50.150;8.756;2022-12-10T11:44:01;4.80;99.90
17172;DHT22;8701;50.150;8.756;2022-12-10T11:48:17;5.80;99.90
17172;DHT22;8701;50.150;8.756;2022-12-10T11:52:36;7.00;99.90
17172;DHT22;8701;50.150;8.756;2022-12-10T11:56:44;7.90;99.90
17172;DHT22;8701;50.150;8.756;2022-12-10T12:00:59;8.70;99.90
17172;DHT22;8701;50.150;8.756;2022-12-10T12:05:19;8.90;99.90
17172;DHT22;8701;50.150;8.756;2022-12-10T12:09:30;9.00;99.90
17172;DHT22;8701;50.150;8.756;2022-12-10T12:13:40;9.10;99.90
17172;DHT22;8701;50.150;8.756;2022-12-10T12:17:47;8.60;99.90
17172;DHT22;8701;50.150;8.756;2022-12-10T12:21:51;8.70;99.90
17172;DHT22;8701;50.150;8.756;2022-12-10T12:25:58;9.20;99.90
17172;DHT22;8701;50.150;8.756;2022-12-10T12:30:07;9.60;99.90
17172;DHT22;8701;50.150;8.756;2022-12-10T12:34:18;9.20;99.90
17172;DHT22;8701;50.150;8.756;2022-12-10T12:38:28;8.40;99.90
17172;DHT22;8701;50.150;8.756;2022-12-10T12:42:36;7.70;99.90
17172;DHT22;8701;50.150;8.756;2022-12-10T12:46:43;8.10;99.90
17172;DHT22;8701;50.150;8.756;2022-12-10T12:50:48;9.00;99.90
17172;DHT22;8701;50.150;8.756;2022-12-10T12:54:54;9.60;99.90
17172;DHT22;8701;50.150;8.756;2022-12-10T12:59:03;9.40;99.90
17172;DHT22;8701;50.150;8.756;2022-12-10T13:03:24;8.70;99.90
17172;DHT22;8701;50.150;8.756;2022-12-10T13:07:31;8.30;99.90
17172;DHT22;8701;50.150;8.756;2022-12-10T13:11:36;8.10;99.90
17172;DHT22;8701;50.150;8.756;2022-12-10T13:15:39;7.90;99.90
17172;DHT22;8701;50.150;8.756;2022-12-10T13:19:41;7.60;99.90
17172;DHT22;8701;50.150;8.756;2022-12-10T13:23:49;7.50;99.90
17172;DHT22;8701;50.150;8.756;2022-12-10T13:27:57;7.30;99.90
17172;DHT22;8701;50.150;8.756;2022-12-10T13:32:18;7.40;99.90
17172;DHT22;8701;50.150;8.756;2022-12-10T13:36:25;7.50;99.90
17172;DHT22;8701;50.150;8.756;2022-12-10T13:40:38;7.80;99.90
17172;DHT22;8701;50.150;8.756;2022-12-10T13:45:03;8.10;99.90
17172;DHT22;8701;50.150;8.756;2022-12-10T13:49:17;8.30;99.90
17172;DHT22;8701;50.150;8.756;2022-12-10T13:53:36;8.20;99.90
17172;DHT22;8701;50.150;8.756;2022-12-10T13:58:05;7.90;99.90
17172;DHT22;8701;50.150;8.756;2022-12-10T14:02:45;7.50;99.90
17172;DHT22;8701;50.150;8.756;2022-12-10T14:06:51;7.30;99.90
17172;DHT22;8701;50.150;8.756;2022-12-10T14:10:54;6.90;99.90
17172;DHT22;8701;50.150;8.756;2022-12-10T14:15:00;6.70;99.90
17172;DHT22;8701;50.150;8.756;2022-12-10T14:19:08;6.50;99.90
17172;DHT22;8701;50.150;8.756;2022-12-10T14:23:24;6.30;99.90
17172;DHT22;8701;50.150;8.756;2022-12-10T14:27:37;6.10;99.90
17172;DHT22;8701;50.150;8.756;2022-12-10T14:31:44;5.90;99.90
17172;DHT22;8701;50.150;8.756;2022-12-10T14:35:49;5.80;99.90
17172;DHT22;8701;50.150;8.756;2022-12-10T14:39:52;5.60;99.90
17172;DHT22;8701;50.150;8.756;2022-12-10T14:43:54;5.60;99.90
17172;DHT22;8701;50.150;8.756;2022-12-10T14:48:00;5.50;99.90
17172;DHT22;8701;50.150;8.756;2022-12-10T14:52:12;5.20;99.90
17172;DHT22;8701;50.150;8.756;2022-12-10T14:56:21;5.20;99.90
17172;DHT22;8701;50.150;8.756;2022-12-10T15:00:24;4.90;99.90
17172;DHT22;8701;50.150;8.756;2022-12-10T15:04:31;4.90;99.90
17172;DHT22;8701;50.150;8.756;2022-12-10T15:08:42;4.80;99.90
17172;DHT22;8701;50.150;8.756;2022-12-10T15:12:46;4.80;99.90
17172;DHT22;8701;50.150;8.756;2022-12-10T15:16:51;4.80;99.90
17172;DHT22;8701;50.150;8.756;2022-12-10T15:21:05;4.70;99.90
17172;DHT22;8701;50.150;8.756;2022-12-10T15:25:21;4.70;99.90
17172;DHT22;8701;50.150;8.756;2022-12-10T15:29:35;4.60;99.90
17172;DHT22;8701;50.150;8.756;2022-12-10T15:33:40;4.40;99.90
17172;DHT22;8701;50.150;8.756;2022-12-10T15:37:43;4.30;99.90
17172;DHT22;8701;50.150;8.756;2022-12-10T15:41:49;4.20;99.90
17172;DHT22;8701;50.150;8.756;2022-12-10T15:45:52;4.20;99.90
17172;DHT22;8701;50.150;8.756;2022-12-10T15:49:55;4.20;99.90
17172;DHT22;8701;50.150;8.756;2022-12-10T15:53:57;4.10;99.90
17172;DHT22;8701;50.150;8.756;2022-12-10T15:58:01;3.90;99.90
17172;DHT22;8701;50.150;8.756;2022-12-10T16:02:07;3.90;99.90
17172;DHT22;8701;50.150;8.756;2022-12-10T16:06:13;3.80;99.90
17172;DHT22;8701;50.150;8.756;2022-12-10T16:10:19;3.80;99.90
17172;DHT22;8701;50.150;8.756;2022-12-10T16:14:23;3.80;99.90
17172;DHT22;8701;50.150;8.756;2022-12-10T16:18:26;3.80;99.90
17172;DHT22;8701;50.150;8.756;2022-12-10T16:22:28;3.60;99.90
17172;DHT22;8701;50.150;8.756;2022-12-10T16:26:30;3.50;99.90
17172;DHT22;8701;50.150;8.756;2022-12-10T16:30:36;3.40;99.90
17172;DHT22;8701;50.150;8.756;2022-12-10T16:34:39;3.30;99.90
17172;DHT22;8701;50.150;8.756;2022-12-10T16:38:41;3.20;99.90
17172;DHT22;8701;50.150;8.756;2022-12-10T16:42:44;3.10;99.90
17172;DHT22;8701;50.150;8.756;2022-12-10T16:46:47;3.00;99.90
17172;DHT22;8701;50.150;8.756;2022-12-10T16:50:51;3.00;99.90
17172;DHT22;8701;50.150;8.756;2022-12-10T16:54:54;3.00;99.90
17172;DHT22;8701;50.150;8.756;2022-12-10T16:58:56;2.90;99.90
17172;DHT22;8701;50.150;8.756;2022-12-10T17:03:00;2.80;99.90
17172;DHT22;8701;50.150;8.756;2022-12-10T17:07:08;2.70;99.90
17172;DHT22;8701;50.150;8.756;2022-12-10T17:11:15;2.70;99.90
17172;DHT22;8701;50.150;8.756;2022-12-10T17:15:36;2.60;99.90
17172;DHT22;8701;50.150;8.756;2022-12-10T17:19:42;2.70;99.90
17172;DHT22;8701;50.150;8.756;2022-12-10T17:23:45;2.60;99.90
17172;DHT22;8701;50.150;8.756;2022-12-10T17:27:47;2.50;99.90
17172;DHT22;8701;50.150;8.756;2022-12-10T17:31:50;2.40;99.90
17172;DHT22;8701;50.150;8.756;2022-12-10T17:35:53;2.40;99.90
17172;DHT22;8701;50.150;8.756;2022-12-10T17:39:56;2.30;99.90
17172;DHT22;8701;50.150;8.756;2022-12-10T17:43:58;2.20;99.90
17172;DHT22;8701;50.150;8.756;2022-12-10T17:48:00;2.30;99.90
17172;DHT22;8701;50.150;8.756;2022-12-10T17:52:04;2.30;99.90
17172;DHT22;8701;50.150;8.756;2022-12-10T17:56:12;2.30;99.90
17172;DHT22;8701;50.150;8.756;2022-12-10T18:00:17;2.40;99.90
17172;DHT22;8701;50.150;8.756;2022-12-10T18:04:20;2.40;99.90
17172;DHT22;8701;50.150;8.756;2022-12-10T18:08:23;2.40;99.90
17172;DHT22;8701;50.150;8.756;2022-12-10T18:12:25;2.40;99.90
17172;DHT22;8701;50.150;8.756;2022-12-10T18:16:30;2.40;99.90
17172;DHT22;8701;50.150;8.756;2022-12-10T18:20:35;2.40;99.90
17172;DHT22;8701;50.150;8.756;2022-12-10T18:24:39;2.30;99.90
17172;DHT22;8701;50.150;8.756;2022-12-10T18:28:44;2.20;99.90
17172;DHT22;8701;50.150;8.756;2022-12-10T18:32:47;2.20;99.90
17172;DHT22;8701;50.150;8.756;2022-12-10T18:36:49;2.10;99.90
17172;DHT22;8701;50.150;8.756;2022-12-10T18:40:53;2.10;99.90
17172;DHT22;8701;50.150;8.756;2022-12-10T18:44:55;2.00;99.90
17172;DHT22;8701;50.150;8.756;2022-12-10T18:48:57;1.90;99.90
17172;DHT22;8701;50.150;8.756;2022-12-10T18:53:00;1.90;99.90
17172;DHT22;8701;50.150;8.756;2022-12-10T18:57:03;1.90;99.90
17172;DHT22;8701;50.150;8.756;2022-12-10T19:01:06;1.70;99.90
17172;DHT22;8701;50.150;8.756;2022-12-10T19:05:09;1.70;99.90
17172;DHT22;8701;50.150;8.756;2022-12-10T19:09:14;1.70;99.90
17172;DHT22;8701;50.150;8.756;2022-12-10T19:13:18;1.70;99.90
17172;DHT22;8701;50.150;8.756;2022-12-10T19:17:21;1.70;99.90
17172;DHT22;8701;50.150;8.756;2022-12-10T19:21:23;1.60;99.90
17172;DHT22;8701;50.150;8.756;2022-12-10T19:25:25;1.60;99.90
17172;DHT22;8701;50.150;8.756;2022-12-10T19:29:29;1.50;99.90
17172;DHT22;8701;50.150;8.756;2022-12-10T19:33:31;1.50;99.90
17172;DHT22;8701;50.150;8.756;2022-12-10T19:37:33;1.50;99.90
17172;DHT22;8701;50.150;8.756;2022-12-10T19:41:35;1.50;99.90
17172;DHT22;8701;50.150;8.756;2022-12-10T19:45:39;1.40;99.90
17172;DHT22;8701;50.150;8.756;2022-12-10T19:49:41;1.40;99.90
17172;DHT22;8701;50.150;8.756;2022-12-10T19:53:45;1.40;99.90
17172;DHT22;8701;50.150;8.756;2022-12-10T19:57:48;1.40;99.90
17172;DHT22;8701;50.150;8.756;2022-12-10T20:01:51;1.30;99.90
17172;DHT22;8701;50.150;8.756;2022-12-10T20:05:53;1.30;99.90
17172;DHT22;8701;50.150;8.756;2022-12-10T20:09:56;1.30;99.90
17172;DHT22;8701;50.150;8.756;2022-12-10T20:13:58;1.20;99.90
17172;DHT22;8701;50.150;8.756;2022-12-10T20:18:01;1.20;99.90
17172;DHT22;8701;50.150;8.756;2022-12-10T20:22:04;1.20;99.90
17172;DHT22;8701;50.150;8.756;2022-12-10T20:26:15;1.20;99.90
17172;DHT22;8701;50.150;8.756;2022-12-10T20:30:20;1.30;99.90
17172;DHT22;8701;50.150;8.756;2022-12-10T20:34:24;1.30;99.90
17172;DHT22;8701;50.150;8.756;2022-12-10T20:38:26;1.30;99.90
17172;DHT22;8701;50.150;8.756;2022-12-10T20:42:29;1.30;99.90
17172;DHT22;8701;50.150;8.756;2022-12-10T20:46:34;1.20;99.90
17172;DHT22;8701;50.150;8.756;2022-12-10T20:50:38;1.20;99.90
17172;DHT22;8701;50.150;8.756;2022-12-10T20:54:40;1.10;99.90
17172;DHT22;8701;50.150;8.756;2022-12-10T20:58:42;1.10;99.90
17172;DHT22;8701;50.150;8.756;2022-12-10T21:02:45;1.00;99.90
17172;DHT22;8701;50.150;8.756;2022-12-10T21:06:48;1.00;99.90
17172;DHT22;8701;50.150;8.756;2022-12-10T21:10:50;0.90;99.90
17172;DHT22;8701;50.150;8.756;2022-12-10T21:14:54;1.00;99.90
17172;DHT22;8701;50.150;8.756;2022-12-10T21:18:56;1.00;99.90
17172;DHT22;8701;50.150;8.756;2022-12-10T21:23:02;0.90;99.90
17172;DHT22;8701;50.150;8.756;2022-12-10T21:27:04;1.00;99.90
17172;DHT22;8701;50.150;8.756;2022-12-10T21:31:12;0.90;99.90
17172;DHT22;8701;50.150;8.756;2022-12-10T21:35:15;1.00;99.90
17172;DHT22;8701;50.150;8.756;2022-12-10T21:39:19;0.90;99.90
17172;DHT22;8701;50.150;8.756;2022-12-10T21:43:23;1.00;99.90
17172;DHT22;8701;50.150;8.756;2022-12-10T21:47:27;1.00;99.90
17172;DHT22;8701;50.150;8.756;2022-12-10T21:51:29;1.00;99.90
17172;DHT22;8701;50.150;8.756;2022-12-10T21:55:34;1.00;99.90
17172;DHT22;8701;50.150;8.756;2022-12-10T21:59:36;1.00;99.90
17172;DHT22;8701;50.150;8.756;2022-12-10T22:03:39;1.00;99.90
17172;DHT22;8701;50.150;8.756;2022-12-10T22:07:41;1.10;99.90
17172;DHT22;8701;50.150;8.756;2022-12-10T22:11:45;1.10;99.90
17172;DHT22;8701;50.150;8.756;2022-12-10T22:15:47;1.10;99.90
17172;DHT22;8701;50.150;8.756;2022-12-10T22:19:49;1.10;99.90
17172;DHT22;8701;50.150;8.756;2022-12-10T22:23:52;1.00;99.90
17172;DHT22;8701;50.150;8.756;2022-12-10T22:27:56;0.90;99.90
17172;DHT22;8701;50.150;8.756;2022-12-10T22:31:59;1.00;99.90
17172;DHT22;8701;50.150;8.756;2022-12-10T22:36:01;0.90;99.90
17172;DHT22;8701;50.150;8.756;2022-12-10T22:40:04;0.90;99.90
17172;DHT22;8701;50.150;8.756;2022-12-10T22:44:08;1.00;99.90
17172;DHT22;8701;50.150;8.756;2022-12-10T22:48:11;1.00;99.90
17172;DHT22;8701;50.150;8.756;2022-12-10T22:52:13;1.00;99.90
17172;DHT22;8701;50.150;8.756;2022-12-10T22:56:15;0.90;99.90
17172;DHT22;8701;50.150;8.756;2022-12-10T23:00:19;0.80;99.90
17172;DHT22;8701;50.150;8.756;2022-12-10T23:04:22;0.70;99.90
17172;DHT22;8701;50.150;8.756;2022-12-10T23:08:24;0.80;99.90
17172;DHT22;8701;50.150;8.756;2022-12-10T23:12:28;0.60;99.90
17172;DHT22;8701;50.150;8.756;2022-12-10T23:16:49;0.60;99.90
17172;DHT22;8701;50.150;8.756;2022-12-10T23:20:51;0.60;99.90
17172;DHT22;8701;50.150;8.756;2022-12-10T23:24:54;0.50;99.90
17172;DHT22;8701;50.150;8.756;2022-12-10T23:28:56;0.50;99.90
17172;DHT22;8701;50.150;8.756;2022-12-10T23:32:59;0.50;99.90
17172;DHT22;8701;50.150;8.756;2022-12-10T23:37:02;0.40;99.90
17172;DHT22;8701;50.150;8.756;2022-12-10T23:41:05;0.50;99.90
17172;DHT22;8701;50.150;8.756;2022-12-10T23:45:09;0.50;99.90
17172;DHT22;8701;50.150;8.756;2022-12-10T23:49:15;0.50;99.90
17172;DHT22;8701;50.150;8.756;2022-12-10T23:53:18;0.60;99.90
17172;DHT22;8701;50.150;8.756;2022-12-10T23:57:20;0.50;99.90
